Time;durP1;ratioP1;P1;durP2;ratioP2;P2;SDS_P1;SDS_P2;PMS_P1;PMS_P2;Temp;Humidity;BMP_temperature;BMP_pressure;BME280_temperature;BME280_humidity;BME280_pressure;Samples;Min_cycle;Max_cycle;Signal;HPM_P1;HPM_P2
2021/07/12 00:02:02;;;;;;;13.68;9.80;;;;;;;20.73;54.70;101347.66;4929561;28;124378;-63
2021/07/12 00:04:29;;;;;;;11.55;8.52;;;;;;;20.69;54.80;101350.75;4923904;28;122742;-63
2021/07/12 00:06:56;;;;;;;12.20;9.05;;;;;;;20.68;54.78;101349.91;4931447;28;114109;-63
2021/07/12 00:09:24;;;;;;;11.40;8.88;;;;;;;20.67;54.83;101348.16;4931286;28;114212;-64
2021/07/12 00:11:51;;;;;;;11.50;9.48;;;;;;;20.67;55.00;101356.25;4931597;28;124873;-63
2021/07/12 00:14:18;;;;;;;11.93;9.40;;;;;;;20.67;55.00;101353.56;4928649;28;124360;-63
2021/07/12 00:16:45;;;;;;;11.35;9.20;;;;;;;20.65;54.98;101360.91;4929865;28;114364;-63
2021/07/12 00:19:12;;;;;;;11.38;9.05;;;;;;;20.63;55.17;101352.09;4931291;28;114313;-64
2021/07/12 00:21:41;;;;;;;9.98;8.02;;;;;;;20.61;54.84;101354.06;4929341;28;124494;-64
2021/07/12 00:24:08;;;;;;;11.77;8.95;;;;;;;20.61;55.05;101348.66;4927186;28;124861;-64
2021/07/12 00:26:35;;;;;;;11.75;8.50;;;;;;;20.60;54.91;101336.19;4928791;28;114585;-64
2021/07/12 00:29:02;;;;;;;11.25;8.75;;;;;;;20.60;54.88;101338.88;4928238;28;114730;-65
2021/07/12 00:31:29;;;;;;;12.63;9.45;;;;;;;20.58;55.19;101338.09;4927948;28;124656;-64
2021/07/12 00:33:57;;;;;;;13.00;10.00;;;;;;;20.54;55.25;101326.72;4925308;28;122955;-64
2021/07/12 00:36:24;;;;;;;13.23;10.05;;;;;;;20.51;55.56;101331.50;4926478;28;115525;-65
2021/07/12 00:38:52;;;;;;;14.35;10.00;;;;;;;20.48;55.53;101323.69;4933798;28;114329;-64
2021/07/12 00:41:19;;;;;;;12.07;9.52;;;;;;;20.48;55.16;101315.59;4930738;28;124181;-64
2021/07/12 00:43:46;;;;;;;11.48;9.27;;;;;;;20.48;55.34;101315.59;4927517;28;124413;-64
2021/07/12 00:46:13;;;;;;;11.00;9.50;;;;;;;20.47;55.24;101319.25;4927827;28;113716;-64
2021/07/12 00:48:42;;;;;;;11.27;8.95;;;;;;;20.45;55.22;101315.84;4929877;28;113348;-64
2021/07/12 00:51:10;;;;;;;13.30;9.95;;;;;;;20.45;55.35;101315.84;4928617;28;124209;-65
2021/07/12 00:53:38;;;;;;;12.52;9.85;;;;;;;20.42;55.32;101317.78;4924642;28;124229;-64
2021/07/12 00:56:08;;;;;;;11.23;9.20;;;;;;;20.40;55.58;101313.53;4928616;28;113517;-64
2021/07/12 00:58:35;;;;;;;11.63;9.00;;;;;;;20.38;55.55;101310.94;4930800;28;114129;-64
2021/07/12 01:01:05;;;;;;;11.38;9.20;;;;;;;20.36;55.61;101310.22;4931139;28;124195;-64
2021/07/12 01:03:33;;;;;;;11.95;9.20;;;;;;;20.34;55.65;101309.50;4932819;28;124629;-64
2021/07/12 01:06:05;;;;;;;11.90;9.50;;;;;;;20.31;55.63;101304.34;4932642;28;114678;-64
2021/07/12 01:08:33;;;;;;;12.27;9.70;;;;;;;20.31;55.54;101308.88;4934053;28;114140;-64
2021/07/12 01:11:28;;;;;;;11.35;8.88;;;;;;;20.26;55.66;101290.38;4933766;28;124745;-63
2021/07/12 01:14:05;;;;;;;12.70;9.55;;;;;;;20.24;55.59;101278.91;4948253;28;123019;-63
2021/07/12 01:17:02;;;;;;;12.00;8.73;;;;;;;20.19;55.42;101283.78;4964997;23;113753;-69
2021/07/12 01:19:52;;;;;;;12.23;8.57;;;;;;;20.18;55.63;101292.84;4952453;28;114824;-69
2021/07/12 01:22:28;;;;;;;10.70;8.75;;;;;;;20.16;55.82;101289.41;4949599;28;124295;-68
2021/07/12 01:25:21;;;;;;;8.90;8.00;;;;;;;20.13;55.79;101284.25;4947545;28;124042;-71
2021/07/12 01:28:15;;;;;;;11.10;8.30;;;;;;;20.10;55.68;101279.13;4952247;28;114981;-68
2021/07/12 01:31:04;;;;;;;10.00;8.18;;;;;;;20.09;55.57;101280.09;4952051;28;114974;-69
2021/07/12 01:33:36;;;;;;;11.10;8.15;;;;;;;20.07;55.82;101274.84;4942495;28;124144;-69
2021/07/12 01:36:30;;;;;;;8.23;7.03;;;;;;;20.01;55.67;101270.81;4952089;28;124178;-68
2021/07/12 01:39:12;;;;;;;9.23;7.00;;;;;;;19.98;56.12;101276.41;4966013;28;113633;-70
2021/07/12 01:41:49;;;;;;;9.77;7.25;;;;;;;19.95;56.25;101276.66;4950352;28;114273;-70
2021/07/12 01:44:38;;;;;;;11.55;7.45;;;;;;;19.93;56.23;101277.75;4952435;28;124535;-71
2021/07/12 01:47:15;;;;;;;11.32;8.27;;;;;;;19.89;56.14;101277.16;4951179;28;124102;-70
2021/07/12 01:50:23;;;;;;;9.20;7.55;;;;;;;19.88;56.00;101285.31;4947779;28;114308;-71
2021/07/12 01:53:05;;;;;;;11.55;7.50;;;;;;;19.86;55.82;101277.38;4948866;28;114656;-70
2021/07/12 01:55:43;;;;;;;8.82;6.75;;;;;;;19.83;56.01;101285.66;4946595;28;123860;-70
2021/07/12 01:58:29;;;;;;;12.10;7.38;;;;;;;19.82;56.01;101286.66;4936815;28;123019;-70
2021/07/12 02:00:59;;;;;;;9.30;7.82;;;;;;;19.81;55.91;101291.16;4952070;28;114497;-70
2021/07/12 02:03:29;;;;;;;11.95;8.45;;;;;;;19.78;56.13;101279.81;4951716;28;114025;-70
2021/07/12 02:06:03;;;;;;;9.65;7.70;;;;;;;19.74;56.32;101273.81;4952413;28;124790;-70
2021/07/12 02:08:36;;;;;;;10.38;7.38;;;;;;;19.72;56.12;101274.84;4947390;28;127068;-70
2021/07/12 02:11:05;;;;;;;13.45;7.68;;;;;;;19.70;56.33;101282.19;4950830;28;114342;-70
2021/07/12 02:13:37;;;;;;;10.68;7.65;;;;;;;19.69;56.45;101269.72;4952193;28;113517;-70
2021/07/12 02:16:14;;;;;;;10.57;7.88;;;;;;;19.67;56.22;101260.94;4949980;28;124060;-70
2021/07/12 02:18:45;;;;;;;9.95;7.57;;;;;;;19.65;56.46;101258.34;4953261;28;124015;-71
2021/07/12 02:21:42;;;;;;;10.55;7.97;;;;;;;19.63;56.30;101255.78;4946775;28;115804;-70
2021/07/12 02:24:25;;;;;;;9.25;7.60;;;;;;;19.62;56.31;101259.44;4948414;28;114035;-68
2021/07/12 02:26:54;;;;;;;10.90;7.60;;;;;;;19.60;56.53;101258.69;4951640;28;124027;-70
2021/07/12 02:29:24;;;;;;;10.50;8.00;;;;;;;19.59;56.25;101243.56;4950871;28;123623;-69
2021/07/12 02:31:52;;;;;;;9.52;7.80;;;;;;;19.59;56.58;101243.56;4944810;28;113729;-69
2021/07/12 02:34:22;;;;;;;9.70;7.57;;;;;;;19.56;56.46;101248.31;4951437;28;113994;-70
2021/07/12 02:36:55;;;;;;;8.73;7.43;;;;;;;19.55;56.37;101252.84;4960870;28;123148;-70
2021/07/12 02:39:32;;;;;;;10.95;7.65;;;;;;;19.53;56.46;101249.38;4952562;28;123914;-69
2021/07/12 02:42:04;;;;;;;10.50;7.55;;;;;;;19.52;56.62;101250.38;4966094;28;115396;-70
2021/07/12 02:44:35;;;;;;;8.82;6.85;;;;;;;19.51;56.50;101235.22;4949216;28;114143;-69
2021/07/12 02:47:06;;;;;;;10.60;8.07;;;;;;;19.50;56.78;101227.31;4948163;28;123525;-70
2021/07/12 02:49:36;;;;;;;9.77;7.60;;;;;;;19.50;56.83;101238.03;4949668;28;124723;-70
2021/07/12 02:52:14;;;;;;;10.52;8.13;;;;;;;19.49;57.02;101245.22;4951422;28;113783;-70
2021/07/12 02:54:45;;;;;;;12.18;8.32;;;;;;;19.50;56.95;101238.91;4942990;28;113053;-70
2021/07/12 02:57:13;;;;;;;9.88;7.75;;;;;;;19.50;57.28;101233.53;4950057;28;124691;-69
2021/07/12 02:59:40;;;;;;;10.77;8.05;;;;;;;19.50;57.30;101233.53;4950071;28;124107;-70
2021/07/12 03:02:08;;;;;;;11.32;7.95;;;;;;;19.50;57.13;101225.47;4943778;28;114839;-69
2021/07/12 03:04:36;;;;;;;9.30;7.72;;;;;;;19.49;57.21;101223.72;4948754;28;113536;-70
2021/07/12 03:07:20;;;;;;;10.20;8.00;;;;;;;19.50;57.27;101219.25;4952173;28;124266;-69
2021/07/12 03:09:51;;;;;;;11.10;8.73;;;;;;;19.50;56.97;101228.16;4964587;28;122929;-69
2021/07/12 03:12:33;;;;;;;14.55;10.23;;;;;;;19.50;57.38;101225.47;4935209;28;114352;-69
2021/07/12 03:15:08;;;;;;;10.50;8.60;;;;;;;19.51;57.33;101224.47;4966052;28;114105;-70
2021/07/12 03:17:43;;;;;;;12.27;9.57;;;;;;;19.52;57.56;101214.59;4950675;28;124351;-69
2021/07/12 03:20:13;;;;;;;13.95;9.68;;;;;;;19.52;57.75;101210.06;4950654;28;124592;-70
2021/07/12 03:22:45;;;;;;;12.15;8.80;;;;;;;19.52;57.67;101210.06;4949667;28;114554;-69
2021/07/12 03:25:17;;;;;;;13.43;9.05;;;;;;;19.53;57.74;101206.41;4946340;28;113125;-70
2021/07/12 03:27:45;;;;;;;13.32;9.35;;;;;;;19.52;57.81;101215.44;4950605;28;124162;-69
2021/07/12 03:30:13;;;;;;;13.27;9.85;;;;;;;19.53;57.80;101203.72;4949132;28;124894;-69
2021/07/12 03:32:45;;;;;;;13.32;8.77;;;;;;;19.53;57.82;101203.72;4949687;28;114952;-69
2021/07/12 03:35:15;;;;;;;10.00;7.82;;;;;;;19.52;57.80;101204.69;4950430;28;113153;-69
2021/07/12 03:37:44;;;;;;;10.45;7.38;;;;;;;19.52;57.52;101204.69;4949447;28;122655;-69
2021/07/12 03:40:13;;;;;;;10.63;8.18;;;;;;;19.51;57.51;101202.13;4947143;28;124146;-69
2021/07/12 03:42:45;;;;;;;10.57;7.93;;;;;;;19.48;57.39;101197.84;4949403;28;115262;-69
2021/07/12 03:45:13;;;;;;;11.75;7.82;;;;;;;19.48;57.29;101200.53;4950513;28;114503;-69
2021/07/12 03:47:47;;;;;;;10.57;7.45;;;;;;;19.47;57.32;101196.13;4944830;28;123220;-69
2021/07/12 03:50:16;;;;;;;11.55;8.10;;;;;;;19.45;57.26;101198.09;4949749;28;124097;-70
2021/07/12 03:52:50;;;;;;;11.48;8.23;;;;;;;19.44;57.62;101191.00;4948803;28;114499;-69
2021/07/12 03:55:21;;;;;;;12.35;8.63;;;;;;;19.43;57.42;101194.66;4947370;28;114075;-70
2021/07/12 03:57:50;;;;;;;11.77;7.82;;;;;;;19.42;57.77;101187.56;4950331;28;124527;-69
2021/07/12 04:00:22;;;;;;;9.77;7.78;;;;;;;19.41;57.62;101186.72;4949694;28;124335;-69
2021/07/12 04:02:50;;;;;;;11.98;7.18;;;;;;;19.41;57.80;101180.50;4943232;28;114185;-69
2021/07/12 04:05:23;;;;;;;11.15;8.52;;;;;;;19.41;58.14;101180.50;4951819;28;115239;-69
2021/07/12 04:07:52;;;;;;;10.13;6.88;;;;;;;19.41;57.62;101185.88;4949028;28;124068;-69
2021/07/12 04:10:20;;;;;;;9.82;7.15;;;;;;;19.41;57.70;101185.88;4952337;28;123616;-70
2021/07/12 04:12:47;;;;;;;7.95;6.47;;;;;;;19.42;57.75;101187.56;4950354;28;114638;-70
2021/07/12 04:15:16;;;;;;;8.48;6.65;;;;;;;19.40;57.69;101186.81;4950145;28;114013;-69
2021/07/12 04:17:44;;;;;;;9.18;6.40;;;;;;;19.40;57.75;101189.50;4951322;28;123921;-69
2021/07/12 04:20:11;;;;;;;8.10;6.18;;;;;;;19.41;57.74;101186.72;4951932;28;124552;-69
2021/07/12 04:22:39;;;;;;;8.93;6.93;;;;;;;19.42;58.00;101187.56;4944313;28;113860;-70
2021/07/12 04:25:08;;;;;;;11.02;6.35;;;;;;;19.43;57.89;101189.28;4947736;28;113879;-69
2021/07/12 04:27:36;;;;;;;7.85;6.18;;;;;;;19.45;58.00;101192.72;4947643;28;124286;-69
2021/07/12 04:30:05;;;;;;;7.85;6.10;;;;;;;19.46;57.92;101199.81;4950435;28;124730;-71
2021/07/12 04:32:33;;;;;;;7.75;5.97;;;;;;;19.48;57.86;101197.84;4948744;28;114557;-69
2021/07/12 04:35:00;;;;;;;9.82;7.70;;;;;;;19.49;58.05;101196.88;4948734;28;113685;-70
2021/07/12 04:37:27;;;;;;;9.93;8.23;;;;;;;19.52;58.03;101190.41;4948644;28;123990;-69
2021/07/12 04:39:55;;;;;;;13.23;9.57;;;;;;;19.53;58.26;101206.41;4946910;28;123933;-70
2021/07/12 04:42:22;;;;;;;12.63;9.43;;;;;;;19.55;58.36;101199.09;4950144;28;115265;-69
2021/07/12 04:44:49;;;;;;;17.38;11.98;;;;;;;19.60;58.50;101196.91;4946113;28;114261;-69
2021/07/12 04:47:16;;;;;;;17.55;13.18;;;;;;;19.61;58.79;101204.00;4947909;28;124608;-69
2021/07/12 04:49:43;;;;;;;19.35;12.70;;;;;;;19.64;58.84;101193.00;4948272;28;123733;-70
2021/07/12 04:52:11;;;;;;;17.10;12.73;;;;;;;19.65;58.82;101200.09;4944831;28;115556;-70
2021/07/12 04:54:38;;;;;;;18.52;13.32;;;;;;;19.69;59.14;101194.50;4950423;28;114968;-70
2021/07/12 04:57:05;;;;;;;19.90;13.23;;;;;;;19.71;59.12;101192.53;4949601;28;124026;-70
2021/07/12 04:59:38;;;;;;;20.63;13.27;;;;;;;19.74;59.27;101186.94;4948999;28;124852;-69
2021/07/12 05:02:06;;;;;;;19.35;12.60;;;;;;;19.75;59.37;101183.28;4952163;28;114148;-69
2021/07/12 05:04:34;;;;;;;17.27;12.30;;;;;;;19.77;59.29;101186.69;4948705;28;114313;-69
2021/07/12 05:07:02;;;;;;;16.92;12.63;;;;;;;19.80;59.53;101191.84;4943832;28;124186;-69
2021/07/12 05:09:29;;;;;;;18.73;12.68;;;;;;;19.84;59.51;101182.56;4930120;28;123510;-69
2021/07/12 05:11:57;;;;;;;19.20;12.88;;;;;;;19.88;59.62;101183.19;4951348;28;114215;-69
2021/07/12 05:14:26;;;;;;;18.95;13.15;;;;;;;19.91;59.68;101188.28;4947321;28;114388;-69
2021/07/12 05:16:53;;;;;;;18.63;13.05;;;;;;;19.95;59.54;101185.25;4951066;28;124203;-69
2021/07/12 05:19:21;;;;;;;22.58;14.05;;;;;;;20.00;59.53;101172.31;4947116;28;124006;-70
2021/07/12 05:21:48;;;;;;;19.10;12.70;;;;;;;20.04;59.66;101172.88;4946495;28;115102;-70
2021/07/12 05:24:15;;;;;;;18.55;13.10;;;;;;;20.07;59.75;101161.06;4944720;28;114686;-69
2021/07/12 05:26:42;;;;;;;15.68;12.07;;;;;;;20.08;59.73;101158.25;4948594;28;124078;-69
2021/07/12 05:29:10;;;;;;;19.42;13.38;;;;;;;20.12;59.84;101158.84;4943916;28;124601;-70
2021/07/12 05:31:37;;;;;;;20.23;13.57;;;;;;;20.15;59.96;101158.59;4949066;28;114180;-70
2021/07/12 05:34:04;;;;;;;21.67;13.07;;;;;;;20.19;60.03;101154.66;4949361;28;114402;-70
2021/07/12 05:36:31;;;;;;;21.02;14.60;;;;;;;20.25;60.00;101143.44;4952982;28;123001;-69
2021/07/12 05:38:59;;;;;;;20.15;14.18;;;;;;;20.31;60.12;101148.31;4951145;28;123791;-70
2021/07/12 05:41:26;;;;;;;19.05;14.48;;;;;;;20.35;60.22;101144.38;4945673;28;115341;-70
2021/07/12 05:43:54;;;;;;;22.08;14.27;;;;;;;20.41;60.20;101146.56;4948917;28;114776;-70
2021/07/12 05:46:21;;;;;;;20.60;15.32;;;;;;;20.49;60.39;101145.09;4946484;28;124777;-69
2021/07/12 05:48:48;;;;;;;20.58;14.70;;;;;;;20.56;60.42;101135.53;4952314;28;123798;-70
2021/07/12 05:51:15;;;;;;;20.27;14.90;;;;;;;20.65;60.44;101139.34;4951443;28;113379;-70
2021/07/12 05:53:42;;;;;;;20.90;15.05;;;;;;;20.74;60.33;101146.66;4942957;28;114094;-70
2021/07/12 05:56:09;;;;;;;23.15;15.13;;;;;;;20.82;60.40;101146.00;4951708;28;123842;-70
2021/07/12 05:58:36;;;;;;;23.30;15.90;;;;;;;20.93;60.41;101137.88;4954677;28;123884;-69
2021/07/12 06:01:04;;;;;;;23.10;15.23;;;;;;;21.01;60.33;101135.41;4951547;28;114237;-69
2021/07/12 06:03:31;;;;;;;18.98;14.23;;;;;;;21.09;60.12;101138.28;4953480;28;113174;-70
2021/07/12 06:05:58;;;;;;;22.45;15.52;;;;;;;21.18;60.14;101136.66;4953077;28;124359;-70
2021/07/12 06:08:25;;;;;;;20.85;15.20;;;;;;;21.29;60.22;101149.22;4951933;28;124876;-70
2021/07/12 06:10:52;;;;;;;18.80;14.55;;;;;;;21.40;60.15;101141.06;4951450;28;114296;-70
2021/07/12 06:13:20;;;;;;;20.00;14.77;;;;;;;21.49;60.10;101143.00;4950612;28;113884;-70
2021/07/12 06:15:47;;;;;;;22.45;15.57;;;;;;;21.61;59.99;101142.91;4948080;28;123914;-70
2021/07/12 06:18:15;;;;;;;19.77;15.35;;;;;;;21.71;59.96;101133.03;4952352;28;124023;-70
2021/07/12 06:20:43;;;;;;;19.52;14.88;;;;;;;21.84;60.03;101138.19;4947051;28;113918;-70
2021/07/12 06:23:10;;;;;;;20.17;14.68;;;;;;;21.97;59.84;101134.28;4944985;28;113503;-70
2021/07/12 06:25:37;;;;;;;21.15;15.20;;;;;;;22.11;59.90;101124.09;4946094;28;123021;-70
2021/07/12 06:28:05;;;;;;;21.48;14.70;;;;;;;22.25;59.82;101115.66;4950966;28;124017;-69
2021/07/12 06:30:35;;;;;;;17.65;13.88;;;;;;;22.38;59.14;101110.00;4951231;28;115605;-69
2021/07/12 06:33:03;;;;;;;17.30;12.50;;;;;;;22.51;59.07;101123.25;4951933;28;115298;-70
2021/07/12 06:35:31;;;;;;;15.20;11.82;;;;;;;22.62;59.00;101133.91;4949829;28;124430;-69
2021/07/12 06:37:58;;;;;;;16.20;12.05;;;;;;;22.73;58.64;101125.69;4950823;28;124032;-69
2021/07/12 06:40:26;;;;;;;13.95;11.48;;;;;;;22.89;58.45;101135.06;4950095;28;114377;-69
2021/07/12 06:42:53;;;;;;;14.50;11.10;;;;;;;23.02;58.68;101141.03;4948922;28;114068;-69
2021/07/12 06:45:23;;;;;;;15.25;11.13;;;;;;;23.17;58.46;101137.88;4952125;28;124168;-69
2021/07/12 06:47:50;;;;;;;16.15;12.10;;;;;;;23.32;58.47;101141.88;4949248;28;124118;-69
2021/07/12 06:50:18;;;;;;;16.40;11.57;;;;;;;23.49;58.16;101143.81;4947753;28;113402;-69
2021/07/12 06:52:46;;;;;;;14.13;11.15;;;;;;;23.66;57.98;101138.66;4950960;28;113780;-69
2021/07/12 06:55:13;;;;;;;14.80;11.85;;;;;;;23.81;57.48;101139.03;4948035;28;124236;-70
2021/07/12 06:57:40;;;;;;;16.42;12.30;;;;;;;23.97;57.39;101135.72;4943599;28;124176;-69
2021/07/12 07:00:08;;;;;;;16.00;11.95;;;;;;;24.14;56.64;101131.34;4950543;28;114381;-69
2021/07/12 07:02:52;;;;;;;17.05;11.52;;;;;;;24.31;56.46;101137.81;4952437;28;113368;-69
2021/07/12 07:05:19;;;;;;;14.40;10.90;;;;;;;24.41;55.95;101138.59;4949257;28;123983;-70
2021/07/12 07:07:46;;;;;;;13.32;10.57;;;;;;;24.51;55.60;101138.56;4951882;28;123926;-69
2021/07/12 07:10:14;;;;;;;12.65;10.30;;;;;;;24.64;55.63;101134.50;4950805;28;115017;-69
2021/07/12 07:12:42;;;;;;;13.27;9.98;;;;;;;24.78;55.42;101129.53;4952400;28;114782;-69
2021/07/12 07:15:09;;;;;;;13.57;10.50;;;;;;;24.90;54.91;101133.69;4952903;28;124881;-69
2021/07/12 07:17:37;;;;;;;13.98;10.95;;;;;;;25.04;55.23;101130.44;4950964;28;124246;-69
2021/07/12 07:20:05;;;;;;;13.48;10.13;;;;;;;25.20;54.91;101123.44;4948019;28;115480;-69
2021/07/12 07:22:34;;;;;;;12.48;10.70;;;;;;;25.37;54.44;101130.75;4948860;28;115176;-69
2021/07/12 07:25:03;;;;;;;13.15;10.50;;;;;;;25.56;54.11;101123.38;4947935;28;123879;-69
2021/07/12 07:27:42;;;;;;;12.52;10.25;;;;;;;25.72;53.45;101134.31;4948196;28;124221;-70
2021/07/12 07:30:10;;;;;;;12.55;9.85;;;;;;;25.86;53.25;101126.59;4951258;28;114304;-71
2021/07/12 07:32:38;;;;;;;12.68;9.88;;;;;;;25.99;52.99;101121.59;4943891;28;114144;-70
2021/07/12 07:35:07;;;;;;;11.15;9.60;;;;;;;26.11;52.43;101112.16;4941073;28;123870;-70
2021/07/12 07:37:35;;;;;;;11.85;9.90;;;;;;;26.25;52.30;101102.50;4944790;28;123394;-70
2021/07/12 07:40:06;;;;;;;12.05;9.40;;;;;;;26.33;51.68;101082.66;4951377;28;114357;-70
2021/07/12 07:42:33;;;;;;;13.55;9.77;;;;;;;26.40;51.37;101083.72;4939851;28;114300;-70
2021/07/12 07:45:02;;;;;;;12.15;9.27;;;;;;;26.48;51.56;101086.44;4948243;28;124431;-70
2021/07/12 07:47:30;;;;;;;12.60;8.85;;;;;;;26.61;51.36;101081.38;4951572;28;124216;-70
2021/07/12 07:50:18;;;;;;;10.27;8.52;;;;;;;26.74;50.73;101096.34;4951762;28;114577;-71
2021/07/12 07:52:46;;;;;;;11.77;9.30;;;;;;;26.84;50.51;101094.28;4948599;28;113253;-71
2021/07/12 07:55:13;;;;;;;9.93;8.73;;;;;;;26.91;50.08;101073.56;4948094;28;123894;-70
2021/07/12 07:57:41;;;;;;;13.05;8.98;;;;;;;26.99;49.92;101072.72;4950558;28;124355;-71
2021/07/12 08:00:15;;;;;;;11.73;9.25;;;;;;;27.06;49.84;101078.34;4949515;28;113537;-70
2021/07/12 08:02:42;;;;;;;10.65;8.82;;;;;;;27.19;49.41;101086.81;4935251;28;116840;-70
2021/07/12 08:05:10;;;;;;;11.85;8.90;;;;;;;27.26;49.31;101085.13;4950346;28;124140;-71
2021/07/12 08:07:37;;;;;;;9.25;7.85;;;;;;;27.33;48.42;101085.28;4949172;28;123956;-70
2021/07/12 08:10:07;;;;;;;11.20;8.15;;;;;;;27.40;48.99;101080.00;4948029;28;115477;-70
2021/07/12 08:12:35;;;;;;;10.68;8.85;;;;;;;27.48;48.94;101072.69;4950587;28;114963;-70
2021/07/12 08:15:05;;;;;;;11.40;8.18;;;;;;;27.60;48.77;101075.88;4949501;28;123948;-70
2021/07/12 08:17:32;;;;;;;10.23;8.32;;;;;;;27.70;48.24;101071.06;4951231;28;124666;-70
2021/07/12 08:20:00;;;;;;;10.90;8.45;;;;;;;27.79;47.98;101068.31;4949064;28;115050;-71
2021/07/12 08:22:49;;;;;;;9.77;7.38;;;;;;;27.85;47.02;101062.16;4945674;28;112937;-70
2021/07/12 08:25:18;;;;;;;9.27;7.65;;;;;;;27.85;47.55;101068.44;4942845;28;123524;-70
2021/07/12 08:27:47;;;;;;;8.75;7.15;;;;;;;27.90;47.28;101057.91;4948394;28;123109;-71
2021/07/12 08:30:15;;;;;;;7.65;5.72;;;;;;;27.97;47.51;101049.88;4949670;28;114552;-71
2021/07/12 08:32:44;;;;;;;6.47;5.40;;;;;;;28.10;47.06;101055.56;4948170;28;113826;-70
2021/07/12 08:35:12;;;;;;;9.20;7.03;;;;;;;28.22;46.92;101041.53;4950137;28;123124;-70
2021/07/12 08:37:39;;;;;;;8.25;6.50;;;;;;;28.31;47.19;101045.91;4947949;28;124173;-70
2021/07/12 08:40:09;;;;;;;7.43;5.93;;;;;;;28.41;46.80;101045.69;4955595;28;113265;-70
2021/07/12 08:42:37;;;;;;;8.95;6.45;;;;;;;28.49;46.44;101049.19;4950981;28;114050;-71
2021/07/12 08:45:05;;;;;;;7.30;5.80;;;;;;;28.54;46.35;101041.34;4953580;28;123231;-70
2021/07/12 08:47:33;;;;;;;8.00;6.25;;;;;;;28.62;46.27;101042.31;4950881;28;123795;-71
2021/07/12 08:50:00;;;;;;;7.30;5.30;;;;;;;28.66;45.70;101038.19;4948993;28;115077;-71
2021/07/12 08:52:29;;;;;;;7.57;5.90;;;;;;;28.70;45.43;101028.63;4948570;28;113924;-72
2021/07/12 08:55:03;;;;;;;7.65;5.53;;;;;;;28.75;45.33;101026.19;4950373;28;124133;-71
2021/07/12 08:57:31;;;;;;;6.45;4.22;;;;;;;28.79;44.80;101027.50;4949119;28;123844;-71
2021/07/12 08:59:58;;;;;;;7.00;4.32;;;;;;;28.83;44.91;101028.84;4946253;28;115094;-73
2021/07/12 09:02:25;;;;;;;7.45;4.03;;;;;;;28.87;44.43;101024.69;4951924;28;114746;-72
2021/07/12 09:04:53;;;;;;;4.95;4.18;;;;;;;28.89;44.22;101022.63;4949522;28;124202;-73
2021/07/12 09:07:22;;;;;;;6.00;4.35;;;;;;;28.95;44.00;101025.66;4946993;28;123768;-73
2021/07/12 09:10:09;;;;;;;6.43;4.72;;;;;;;28.93;43.83;101023.97;4949382;28;114377;-74
2021/07/12 09:12:50;;;;;;;5.20;4.38;;;;;;;28.91;43.60;101026.06;4947922;28;113989;-74
2021/07/12 09:15:20;;;;;;;4.72;3.83;;;;;;;28.90;43.48;101024.34;4948967;28;124003;-73
2021/07/12 09:17:52;;;;;;;3.95;3.00;;;;;;;28.90;43.38;101018.06;4950684;28;124203;-74
2021/07/12 09:20:26;;;;;;;5.15;3.80;;;;;;;28.91;43.53;101023.31;4949681;28;114766;-73
2021/07/12 09:22:54;;;;;;;5.05;4.22;;;;;;;29.00;43.34;101023.22;4944875;28;114236;-72
2021/07/12 09:25:22;;;;;;;5.40;3.35;;;;;;;29.05;43.49;101026.25;4946271;28;123889;-72
2021/07/12 09:27:56;;;;;;;6.93;3.90;;;;;;;29.08;43.36;101025.88;4953602;28;124706;-73
2021/07/12 09:30:23;;;;;;;4.50;3.57;;;;;;;29.16;42.78;101017.66;4946408;28;114559;-73
2021/07/12 09:32:53;;;;;;;4.95;3.92;;;;;;;29.20;42.62;101024.41;4949477;28;114694;-73
2021/07/12 09:35:21;;;;;;;5.07;3.70;;;;;;;29.24;42.25;101009.34;4951029;28;124236;-72
2021/07/12 09:37:57;;;;;;;4.60;3.50;;;;;;;29.25;41.94;101004.75;4953875;28;124445;-72
2021/07/12 09:40:28;;;;;;;4.80;3.88;;;;;;;29.15;41.22;100999.56;4950815;28;114879;-72
2021/07/12 09:42:56;;;;;;;4.90;3.10;;;;;;;29.09;42.50;101001.13;4955825;28;114694;-73
2021/07/12 09:45:24;;;;;;;3.28;2.80;;;;;;;29.14;42.11;101003.34;4950705;28;123617;-73
2021/07/12 09:47:51;;;;;;;4.10;3.30;;;;;;;29.23;41.49;101001.34;4950551;28;124223;-74
2021/07/12 09:50:21;;;;;;;4.97;3.22;;;;;;;29.29;41.69;101006.94;4952935;28;115560;-73
2021/07/12 09:53:04;;;;;;;5.43;4.65;;;;;;;29.33;40.70;100990.16;4954508;28;115549;-74
2021/07/12 09:55:41;;;;;;;5.13;3.33;;;;;;;29.29;41.54;100992.41;4948781;28;124603;-74
2021/07/12 09:58:24;;;;;;;4.80;3.63;;;;;;;29.28;41.57;100999.75;4952895;28;123783;-73
2021/07/12 10:00:51;;;;;;;5.65;3.60;;;;;;;29.31;41.68;100996.66;4952376;28;114274;-72
2021/07/12 10:03:22;;;;;;;5.90;3.83;;;;;;;29.36;41.21;100989.78;4953963;28;113893;-72
2021/07/12 10:05:51;;;;;;;5.72;3.85;;;;;;;29.39;41.12;100978.50;4951773;28;124394;-72
2021/07/12 10:08:19;;;;;;;4.80;2.97;;;;;;;29.38;41.31;100974.06;4952576;28;123839;-72
2021/07/12 10:10:47;;;;;;;6.00;3.33;;;;;;;29.39;41.02;100978.50;4952144;28;114621;-72
2021/07/12 10:13:14;;;;;;;3.97;2.80;;;;;;;29.43;40.78;100974.34;4949311;28;113101;-72
2021/07/12 10:15:42;;;;;;;3.45;2.70;;;;;;;29.45;40.63;100977.75;4945928;28;123949;-73
2021/07/12 10:18:10;;;;;;;4.05;2.63;;;;;;;29.48;40.59;100974.63;4952859;28;124761;-73
2021/07/12 10:20:37;;;;;;;4.63;2.90;;;;;;;29.53;40.70;100963.13;4951367;28;114200;-73
2021/07/12 10:23:07;;;;;;;3.33;2.72;;;;;;;29.58;40.51;100966.97;4954162;28;112973;-73
2021/07/12 10:25:37;;;;;;;5.60;2.60;;;;;;;29.59;40.41;100973.28;4947882;28;124139;-73
2021/07/12 10:28:06;;;;;;;4.85;3.05;;;;;;;29.60;39.88;100975.81;4950541;28;122864;-73
2021/07/12 10:30:44;;;;;;;3.22;2.60;;;;;;;29.64;39.94;100971.66;4950658;28;113088;-73
2021/07/12 10:33:14;;;;;;;3.60;2.80;;;;;;;29.68;39.69;100972.97;4949487;28;114532;-72
2021/07/12 10:35:46;;;;;;;3.17;2.72;;;;;;;29.67;39.61;100965.84;4943433;28;124130;-72
2021/07/12 10:38:14;;;;;;;4.65;3.22;;;;;;;29.69;39.92;100963.75;4950411;28;123811;-72
2021/07/12 10:40:47;;;;;;;5.25;3.88;;;;;;;29.76;40.31;100968.47;4949028;28;115794;-73
2021/07/12 10:43:33;;;;;;;4.03;2.50;;;;;;;29.85;39.73;100964.59;4942552;28;115256;-73
2021/07/12 10:46:01;;;;;;;3.45;2.55;;;;;;;29.94;39.16;100960.69;4939157;28;124107;-72
2021/07/12 10:48:38;;;;;;;3.28;2.42;;;;;;;30.01;39.43;100958.88;4950640;28;124064;-73
2021/07/12 10:51:15;;;;;;;3.90;2.33;;;;;;;30.14;39.09;100960.03;4952256;28;114315;-72
2021/07/12 10:53:43;;;;;;;3.45;3.00;;;;;;;30.24;39.19;100963.31;4950605;28;114303;-73
2021/07/12 10:56:16;;;;;;;3.47;2.45;;;;;;;30.31;38.75;100956.03;4949667;28;124613;-73
2021/07/12 10:58:45;;;;;;;3.10;2.42;;;;;;;30.33;38.43;100943.03;4948844;28;125064;-73
2021/07/12 11:01:16;;;;;;;3.15;2.45;;;;;;;30.32;37.71;100941.34;4944101;28;114411;-72
2021/07/12 11:03:51;;;;;;;2.75;2.42;;;;;;;30.31;37.89;100939.63;4951978;28;114731;-73
2021/07/12 11:06:23;;;;;;;;;;;;;;;30.34;39.18;100944.72;4952592;28;124091;-73
2021/07/12 11:08:56;;;;;;;3.95;2.30;;;;;;;30.43;38.91;100943.53;4950752;28;124365;-73
2021/07/12 11:11:23;;;;;;;2.63;2.22;;;;;;;30.52;38.28;100946.16;4944509;28;113397;-73
2021/07/12 11:14:00;;;;;;;4.20;3.00;;;;;;;30.55;38.21;100940.25;4950329;28;113891;-72
2021/07/12 11:16:38;;;;;;;3.28;2.40;;;;;;;30.55;38.57;100943.00;4952325;28;124443;-73
2021/07/12 11:19:21;;;;;;;3.40;2.60;;;;;;;30.54;38.22;100950.34;4949348;28;123795;-73
2021/07/12 11:21:48;;;;;;;3.90;2.25;;;;;;;30.54;38.27;100944.06;4949289;28;114521;-72
2021/07/12 11:24:22;;;;;;;2.97;2.20;;;;;;;30.56;37.87;100947.44;4932861;28;112929;-72
2021/07/12 11:26:55;;;;;;;4.03;2.80;;;;;;;30.57;37.39;100949.09;4949792;28;123117;-72